sensor_id;sensor_type;location;lat;lon;timestamp;P1;durP1;ratioP1;P2;durP2;ratioP2
68858;SDS011;55864;49.238;8.092;2022-12-20T00:00:20;50.33;;;22.20;;
68858;SDS011;55864;49.238;8.092;2022-12-20T00:02:21;48.90;;;21.50;;
68858;SDS011;55864;49.238;8.092;2022-12-20T00:04:21;42.03;;;20.10;;
68858;SDS011;55864;49.238;8.092;2022-12-20T00:06:22;47.87;;;22.70;;
68858;SDS011;55864;49.238;8.092;2022-12-20T00:08:25;49.90;;;22.67;;
68858;SDS011;55864;49.238;8.092;2022-12-20T00:10:26;54.50;;;24.20;;
68858;SDS011;55864;49.238;8.092;2022-12-20T00:12:26;47.47;;;22.60;;
68858;SDS011;55864;49.238;8.092;2022-12-20T00:14:27;50.70;;;22.23;;
68858;SDS011;55864;49.238;8.092;2022-12-20T00:16:27;49.77;;;22.93;;
68858;SDS011;55864;49.238;8.092;2022-12-20T00:18:28;54.47;;;21.73;;
68858;SDS011;55864;49.238;8.092;2022-12-20T00:20:29;49.93;;;21.83;;
68858;SDS011;55864;49.238;8.092;2022-12-20T00:22:30;58.33;;;24.57;;
68858;SDS011;55864;49.238;8.092;2022-12-20T00:24:32;51.53;;;24.00;;
68858;SDS011;55864;49.238;8.092;2022-12-20T00:26:33;48.90;;;22.80;;
68858;SDS011;55864;49.238;8.092;2022-12-20T00:28:34;52.30;;;21.90;;
68858;SDS011;55864;49.238;8.092;2022-12-20T00:30:35;45.23;;;20.57;;
68858;SDS011;55864;49.238;8.092;2022-12-20T00:32:36;47.67;;;21.40;;
68858;SDS011;55864;49.238;8.092;2022-12-20T00:34:36;50.17;;;23.13;;
68858;SDS011;55864;49.238;8.092;2022-12-20T00:36:38;51.13;;;22.37;;
68858;SDS011;55864;49.238;8.092;2022-12-20T00:38:43;45.00;;;21.10;;
68858;SDS011;55864;49.238;8.092;2022-12-20T00:40:44;50.03;;;22.37;;
68858;SDS011;55864;49.238;8.092;2022-12-20T00:42:45;48.97;;;21.30;;
68858;SDS011;55864;49.238;8.092;2022-12-20T00:44:45;48.90;;;22.37;;
68858;SDS011;55864;49.238;8.092;2022-12-20T00:46:46;45.47;;;21.70;;
68858;SDS011;55864;49.238;8.092;2022-12-20T00:48:46;46.70;;;21.13;;
68858;SDS011;55864;49.238;8.092;2022-12-20T00:50:47;49.60;;;22.53;;
68858;SDS011;55864;49.238;8.092;2022-12-20T00:52:48;48.53;;;22.10;;
68858;SDS011;55864;49.238;8.092;2022-12-20T00:54:48;50.10;;;22.87;;
68858;SDS011;55864;49.238;8.092;2022-12-20T00:56:50;47.90;;;21.40;;
68858;SDS011;55864;49.238;8.092;2022-12-20T00:58:50;49.63;;;22.07;;
68858;SDS011;55864;49.238;8.092;2022-12-20T01:00:51;49.43;;;21.63;;
68858;SDS011;55864;49.238;8.092;2022-12-20T01:02:52;59.77;;;26.17;;
68858;SDS011;55864;49.238;8.092;2022-12-20T01:04:53;50.50;;;22.87;;
68858;SDS011;55864;49.238;8.092;2022-12-20T01:06:53;43.77;;;21.67;;
68858;SDS011;55864;49.238;8.092;2022-12-20T01:08:54;53.57;;;23.83;;
68858;SDS011;55864;49.238;8.092;2022-12-20T01:10:58;51.00;;;23.60;;
68858;SDS011;55864;49.238;8.092;2022-12-20T01:13:01;52.70;;;22.73;;
68858;SDS011;55864;49.238;8.092;2022-12-20T01:15:03;54.78;;;24.27;;
68858;SDS011;55864;49.238;8.092;2022-12-20T01:17:04;55.20;;;24.10;;
68858;SDS011;55864;49.238;8.092;2022-12-20T01:19:05;66.57;;;27.53;;
68858;SDS011;55864;49.238;8.092;2022-12-20T01:21:08;59.87;;;24.23;;
68858;SDS011;55864;49.238;8.092;2022-12-20T01:23:11;67.43;;;29.73;;
68858;SDS011;55864;49.238;8.092;2022-12-20T01:25:12;65.03;;;27.40;;
68858;SDS011;55864;49.238;8.092;2022-12-20T01:27:12;63.57;;;26.70;;
68858;SDS011;55864;49.238;8.092;2022-12-20T01:29:14;57.97;;;25.93;;
68858;SDS011;55864;49.238;8.092;2022-12-20T01:31:16;58.67;;;25.05;;
68858;SDS011;55864;49.238;8.092;2022-12-20T01:33:17;57.37;;;24.87;;
68858;SDS011;55864;49.238;8.092;2022-12-20T01:35:18;49.63;;;23.83;;
68858;SDS011;55864;49.238;8.092;2022-12-20T01:37:18;51.37;;;22.70;;
68858;SDS011;55864;49.238;8.092;2022-12-20T01:39:19;49.37;;;24.10;;
68858;SDS011;55864;49.238;8.092;2022-12-20T01:41:20;45.77;;;22.50;;
68858;SDS011;55864;49.238;8.092;2022-12-20T01:43:21;44.37;;;20.10;;
68858;SDS011;55864;49.238;8.092;2022-12-20T01:45:27;46.73;;;21.60;;
68858;SDS011;55864;49.238;8.092;2022-12-20T01:47:29;49.23;;;21.00;;
68858;SDS011;55864;49.238;8.092;2022-12-20T01:49:33;47.27;;;21.50;;
68858;SDS011;55864;49.238;8.092;2022-12-20T01:51:40;47.10;;;21.17;;
68858;SDS011;55864;49.238;8.092;2022-12-20T01:53:43;45.57;;;20.97;;
68858;SDS011;55864;49.238;8.092;2022-12-20T01:55:44;52.87;;;24.50;;
68858;SDS011;55864;49.238;8.092;2022-12-20T01:57:45;62.53;;;27.63;;
68858;SDS011;55864;49.238;8.092;2022-12-20T01:59:48;61.07;;;27.00;;
68858;SDS011;55864;49.238;8.092;2022-12-20T02:01:52;53.67;;;25.50;;
68858;SDS011;55864;49.238;8.092;2022-12-20T02:03:55;49.87;;;21.50;;
68858;SDS011;55864;49.238;8.092;2022-12-20T02:05:56;45.37;;;20.40;;
68858;SDS011;55864;49.238;8.092;2022-12-20T02:07:57;47.17;;;20.97;;
68858;SDS011;55864;49.238;8.092;2022-12-20T02:09:57;43.27;;;20.23;;
68858;SDS011;55864;49.238;8.092;2022-12-20T02:12:02;44.60;;;20.57;;
68858;SDS011;55864;49.238;8.092;2022-12-20T02:14:11;43.37;;;21.67;;
68858;SDS011;55864;49.238;8.092;2022-12-20T02:16:19;48.80;;;21.77;;
68858;SDS011;55864;49.238;8.092;2022-12-20T02:18:26;41.43;;;20.30;;
68858;SDS011;55864;49.238;8.092;2022-12-20T02:23:03;47.97;;;21.23;;
68858;SDS011;55864;49.238;8.092;2022-12-20T02:25:31;40.67;;;20.47;;
68858;SDS011;55864;49.238;8.092;2022-12-20T02:27:45;44.27;;;20.43;;
68858;SDS011;55864;49.238;8.092;2022-12-20T02:32:11;46.03;;;20.30;;
68858;SDS011;55864;49.238;8.092;2022-12-20T02:34:16;44.87;;;20.17;;
68858;SDS011;55864;49.238;8.092;2022-12-20T02:36:19;45.78;;;20.88;;
68858;SDS011;55864;49.238;8.092;2022-12-20T02:38:25;46.77;;;21.43;;
68858;SDS011;55864;49.238;8.092;2022-12-20T02:40:29;43.60;;;20.77;;
68858;SDS011;55864;49.238;8.092;2022-12-20T02:42:34;47.03;;;22.10;;
68858;SDS011;55864;49.238;8.092;2022-12-20T02:44:36;48.87;;;21.80;;
68858;SDS011;55864;49.238;8.092;2022-12-20T02:46:41;43.40;;;20.97;;
68858;SDS011;55864;49.238;8.092;2022-12-20T02:48:42;46.53;;;21.67;;
68858;SDS011;55864;49.238;8.092;2022-12-20T02:50:47;47.93;;;20.30;;
68858;SDS011;55864;49.238;8.092;2022-12-20T02:52:51;44.70;;;20.03;;
68858;SDS011;55864;49.238;8.092;2022-12-20T02:54:52;44.77;;;21.40;;
68858;SDS011;55864;49.238;8.092;2022-12-20T02:56:55;44.00;;;20.40;;
68858;SDS011;55864;49.238;8.092;2022-12-20T02:59:00;47.93;;;22.23;;
68858;SDS011;55864;49.238;8.092;2022-12-20T03:01:05;49.63;;;22.33;;
68858;SDS011;55864;49.238;8.092;2022-12-20T03:03:11;46.57;;;20.33;;
68858;SDS011;55864;49.238;8.092;2022-12-20T03:05:12;46.13;;;20.67;;
68858;SDS011;55864;49.238;8.092;2022-12-20T03:07:14;44.87;;;20.90;;
68858;SDS011;55864;49.238;8.092;2022-12-20T03:09:15;43.07;;;20.93;;
68858;SDS011;55864;49.238;8.092;2022-12-20T03:11:15;42.90;;;20.23;;
68858;SDS011;55864;49.238;8.092;2022-12-20T03:13:16;42.70;;;19.73;;
68858;SDS011;55864;49.238;8.092;2022-12-20T03:15:25;42.17;;;20.57;;
68858;SDS011;55864;49.238;8.092;2022-12-20T03:17:28;43.20;;;20.00;;
68858;SDS011;55864;49.238;8.092;2022-12-20T03:19:30;47.67;;;20.37;;
68858;SDS011;55864;49.238;8.092;2022-12-20T03:21:32;45.35;;;19.73;;
68858;SDS011;55864;49.238;8.092;2022-12-20T03:23:32;45.40;;;20.07;;
68858;SDS011;55864;49.238;8.092;2022-12-20T03:25:33;42.43;;;20.03;;
68858;SDS011;55864;49.238;8.092;2022-12-20T03:27:34;40.97;;;20.17;;
68858;SDS011;55864;49.238;8.092;2022-12-20T03:29:36;42.03;;;19.20;;
68858;SDS011;55864;49.238;8.092;2022-12-20T03:31:37;42.00;;;17.73;;
68858;SDS011;55864;49.238;8.092;2022-12-20T03:33:38;33.93;;;16.03;;
68858;SDS011;55864;49.238;8.092;2022-12-20T03:35:42;32.47;;;14.90;;
68858;SDS011;55864;49.238;8.092;2022-12-20T03:37:43;28.35;;;12.63;;
68858;SDS011;55864;49.238;8.092;2022-12-20T03:39:44;30.00;;;13.87;;
68858;SDS011;55864;49.238;8.092;2022-12-20T03:41:45;31.13;;;13.23;;
68858;SDS011;55864;49.238;8.092;2022-12-20T03:43:49;28.77;;;11.77;;
68858;SDS011;55864;49.238;8.092;2022-12-20T03:45:50;23.27;;;10.27;;
68858;SDS011;55864;49.238;8.092;2022-12-20T03:47:52;21.07;;;9.80;;
68858;SDS011;55864;49.238;8.092;2022-12-20T03:49:53;21.13;;;9.43;;
68858;SDS011;55864;49.238;8.092;2022-12-20T03:51:55;21.67;;;10.77;;
68858;SDS011;55864;49.238;8.092;2022-12-20T03:53:56;23.20;;;11.07;;
68858;SDS011;55864;49.238;8.092;2022-12-20T03:56:06;26.87;;;12.10;;
68858;SDS011;55864;49.238;8.092;2022-12-20T03:58:07;32.27;;;13.87;;
68858;SDS011;55864;49.238;8.092;2022-12-20T04:00:12;29.07;;;13.60;;
68858;SDS011;55864;49.238;8.092;2022-12-20T04:02:19;34.30;;;15.23;;
68858;SDS011;55864;49.238;8.092;2022-12-20T04:04:21;32.83;;;15.77;;
68858;SDS011;55864;49.238;8.092;2022-12-20T04:06:21;34.77;;;16.40;;
68858;SDS011;55864;49.238;8.092;2022-12-20T04:08:25;37.47;;;15.83;;
68858;SDS011;55864;49.238;8.092;2022-12-20T04:10:26;35.13;;;16.30;;
68858;SDS011;55864;49.238;8.092;2022-12-20T04:12:27;28.17;;;14.77;;
68858;SDS011;55864;49.238;8.092;2022-12-20T04:14:27;32.53;;;14.47;;
68858;SDS011;55864;49.238;8.092;2022-12-20T04:16:28;29.83;;;13.73;;
68858;SDS011;55864;49.238;8.092;2022-12-20T04:18:29;27.67;;;12.33;;
68858;SDS011;55864;49.238;8.092;2022-12-20T04:20:32;27.10;;;12.65;;
68858;SDS011;55864;49.238;8.092;2022-12-20T04:22:46;23.93;;;11.47;;
68858;SDS011;55864;49.238;8.092;2022-12-20T04:24:50;27.37;;;12.03;;
68858;SDS011;55864;49.238;8.092;2022-12-20T04:27:04;25.27;;;11.57;;
68858;SDS011;55864;49.238;8.092;2022-12-20T04:29:04;22.47;;;10.57;;
68858;SDS011;55864;49.238;8.092;2022-12-20T04:31:12;25.57;;;10.67;;
68858;SDS011;55864;49.238;8.092;2022-12-20T04:33:13;26.80;;;11.40;;
68858;SDS011;55864;49.238;8.092;2022-12-20T04:35:17;23.33;;;11.10;;
68858;SDS011;55864;49.238;8.092;2022-12-20T04:37:24;25.57;;;11.70;;
68858;SDS011;55864;49.238;8.092;2022-12-20T04:39:27;30.93;;;13.70;;
68858;SDS011;55864;49.238;8.092;2022-12-20T04:41:51;26.30;;;13.00;;
68858;SDS011;55864;49.238;8.092;2022-12-20T04:43:53;23.67;;;11.70;;
68858;SDS011;55864;49.238;8.092;2022-12-20T04:45:56;27.17;;;12.50;;
68858;SDS011;55864;49.238;8.092;2022-12-20T04:47:58;22.43;;;11.50;;
68858;SDS011;55864;49.238;8.092;2022-12-20T04:50:08;23.47;;;11.70;;
68858;SDS011;55864;49.238;8.092;2022-12-20T04:52:09;24.43;;;11.43;;
68858;SDS011;55864;49.238;8.092;2022-12-20T04:54:09;20.87;;;9.47;;
68858;SDS011;55864;49.238;8.092;2022-12-20T04:56:19;17.83;;;8.53;;
68858;SDS011;55864;49.238;8.092;2022-12-20T04:58:22;16.03;;;8.70;;
68858;SDS011;55864;49.238;8.092;2022-12-20T05:00:23;418.27;;;24.57;;
68858;SDS011;55864;49.238;8.092;2022-12-20T05:02:32;16.90;;;7.93;;
68858;SDS011;55864;49.238;8.092;2022-12-20T05:04:37;17.90;;;6.90;;
68858;SDS011;55864;49.238;8.092;2022-12-20T05:06:38;12.30;;;6.20;;
68858;SDS011;55864;49.238;8.092;2022-12-20T05:08:39;13.80;;;6.50;;
68858;SDS011;55864;49.238;8.092;2022-12-20T05:10:40;15.03;;;6.20;;
68858;SDS011;55864;49.238;8.092;2022-12-20T05:12:41;13.07;;;5.63;;
68858;SDS011;55864;49.238;8.092;2022-12-20T05:14:47;14.00;;;5.67;;
68858;SDS011;55864;49.238;8.092;2022-12-20T05:16:50;12.60;;;6.17;;
68858;SDS011;55864;49.238;8.092;2022-12-20T05:18:51;12.60;;;6.23;;
68858;SDS011;55864;49.238;8.092;2022-12-20T05:20:53;12.10;;;5.97;;
68858;SDS011;55864;49.238;8.092;2022-12-20T05:22:56;13.97;;;5.90;;
68858;SDS011;55864;49.238;8.092;2022-12-20T05:24:57;13.77;;;5.93;;
68858;SDS011;55864;49.238;8.092;2022-12-20T05:27:04;13.30;;;6.43;;
68858;SDS011;55864;49.238;8.092;2022-12-20T05:29:05;11.50;;;5.53;;
68858;SDS011;55864;49.238;8.092;2022-12-20T05:31:08;12.37;;;5.60;;
68858;SDS011;55864;49.238;8.092;2022-12-20T05:33:09;10.18;;;4.90;;
68858;SDS011;55864;49.238;8.092;2022-12-20T05:35:11;10.63;;;5.30;;
68858;SDS011;55864;49.238;8.092;2022-12-20T05:37:12;12.00;;;5.30;;
68858;SDS011;55864;49.238;8.092;2022-12-20T05:39:14;11.00;;;5.03;;
68858;SDS011;55864;49.238;8.092;2022-12-20T05:41:17;14.02;;;5.43;;
68858;SDS011;55864;49.238;8.092;2022-12-20T05:43:21;11.13;;;5.10;;
68858;SDS011;55864;49.238;8.092;2022-12-20T05:45:22;12.03;;;5.27;;
68858;SDS011;55864;49.238;8.092;2022-12-20T05:47:29;18.30;;;6.83;;
68858;SDS011;55864;49.238;8.092;2022-12-20T05:49:37;23.73;;;8.37;;
68858;SDS011;55864;49.238;8.092;2022-12-20T05:51:41;24.37;;;9.50;;
68858;SDS011;55864;49.238;8.092;2022-12-20T05:54:07;33.80;;;11.97;;
68858;SDS011;55864;49.238;8.092;2022-12-20T05:56:18;44.63;;;15.83;;
68858;SDS011;55864;49.238;8.092;2022-12-20T05:58:20;48.43;;;16.97;;
68858;SDS011;55864;49.238;8.092;2022-12-20T06:00:28;44.43;;;14.33;;
68858;SDS011;55864;49.238;8.092;2022-12-20T06:02:30;38.17;;;14.00;;
68858;SDS011;55864;49.238;8.092;2022-12-20T06:04:35;32.63;;;11.70;;
68858;SDS011;55864;49.238;8.092;2022-12-20T06:06:43;25.23;;;9.97;;
68858;SDS011;55864;49.238;8.092;2022-12-20T06:08:47;20.50;;;8.87;;
68858;SDS011;55864;49.238;8.092;2022-12-20T06:10:54;15.43;;;6.67;;
68858;SDS011;55864;49.238;8.092;2022-12-20T06:12:55;16.37;;;6.57;;
68858;SDS011;55864;49.238;8.092;2022-12-20T06:14:58;15.23;;;6.07;;
68858;SDS011;55864;49.238;8.092;2022-12-20T06:16:58;13.97;;;7.03;;
68858;SDS011;55864;49.238;8.092;2022-12-20T06:19:00;16.87;;;8.07;;
68858;SDS011;55864;49.238;8.092;2022-12-20T06:21:02;15.27;;;7.22;;
68858;SDS011;55864;49.238;8.092;2022-12-20T06:23:03;16.17;;;7.40;;
68858;SDS011;55864;49.238;8.092;2022-12-20T06:25:10;16.93;;;7.33;;
68858;SDS011;55864;49.238;8.092;2022-12-20T06:27:12;14.15;;;7.10;;
68858;SDS011;55864;49.238;8.092;2022-12-20T06:29:13;16.00;;;7.00;;
68858;SDS011;55864;49.238;8.092;2022-12-20T06:31:18;14.37;;;6.93;;
68858;SDS011;55864;49.238;8.092;2022-12-20T06:33:22;14.13;;;7.27;;
68858;SDS011;55864;49.238;8.092;2022-12-20T06:35:26;14.73;;;7.50;;
68858;SDS011;55864;49.238;8.092;2022-12-20T06:37:29;13.40;;;7.07;;
68858;SDS011;55864;49.238;8.092;2022-12-20T06:39:30;14.40;;;6.83;;
68858;SDS011;55864;49.238;8.092;2022-12-20T06:41:36;12.33;;;6.17;;
68858;SDS011;55864;49.238;8.092;2022-12-20T06:43:36;11.03;;;5.87;;
68858;SDS011;55864;49.238;8.092;2022-12-20T06:45:37;13.70;;;6.30;;
68858;SDS011;55864;49.238;8.092;2022-12-20T06:47:38;14.60;;;6.07;;
68858;SDS011;55864;49.238;8.092;2022-12-20T06:49:39;12.93;;;5.90;;
68858;SDS011;55864;49.238;8.092;2022-12-20T06:51:48;16.77;;;6.40;;
68858;SDS011;55864;49.238;8.092;2022-12-20T06:53:49;12.88;;;6.45;;
68858;SDS011;55864;49.238;8.092;2022-12-20T06:55:50;14.40;;;6.13;;
68858;SDS011;55864;49.238;8.092;2022-12-20T06:57:51;13.87;;;6.23;;
68858;SDS011;55864;49.238;8.092;2022-12-20T06:59:53;13.30;;;5.50;;
68858;SDS011;55864;49.238;8.092;2022-12-20T07:01:53;13.60;;;5.80;;
68858;SDS011;55864;49.238;8.092;2022-12-20T07:03:54;12.97;;;5.80;;
68858;SDS011;55864;49.238;8.092;2022-12-20T07:05:54;13.03;;;5.60;;
68858;SDS011;55864;49.238;8.092;2022-12-20T07:07:56;12.33;;;5.40;;
68858;SDS011;55864;49.238;8.092;2022-12-20T07:09:57;12.40;;;4.93;;
68858;SDS011;55864;49.238;8.092;2022-12-20T07:11:57;11.07;;;5.47;;
68858;SDS011;55864;49.238;8.092;2022-12-20T07:13:58;11.53;;;5.30;;
68858;SDS011;55864;49.238;8.092;2022-12-20T07:15:59;15.33;;;6.00;;
68858;SDS011;55864;49.238;8.092;2022-12-20T07:18:00;12.30;;;5.30;;
68858;SDS011;55864;49.238;8.092;2022-12-20T07:20:00;14.97;;;6.90;;
68858;SDS011;55864;49.238;8.092;2022-12-20T07:22:01;17.10;;;6.40;;
68858;SDS011;55864;49.238;8.092;2022-12-20T07:24:03;17.23;;;7.30;;
68858;SDS011;55864;49.238;8.092;2022-12-20T07:26:04;16.00;;;6.70;;
68858;SDS011;55864;49.238;8.092;2022-12-20T07:28:05;18.33;;;8.07;;
68858;SDS011;55864;49.238;8.092;2022-12-20T07:30:06;17.40;;;6.90;;
68858;SDS011;55864;49.238;8.092;2022-12-20T07:32:07;15.00;;;6.60;;
68858;SDS011;55864;49.238;8.092;2022-12-20T07:34:08;13.93;;;6.13;;
68858;SDS011;55864;49.238;8.092;2022-12-20T07:36:09;12.97;;;6.37;;
68858;SDS011;55864;49.238;8.092;2022-12-20T07:38:12;14.77;;;6.80;;
68858;SDS011;55864;49.238;8.092;2022-12-20T07:40:14;16.47;;;7.47;;
68858;SDS011;55864;49.238;8.092;2022-12-20T07:42:15;16.43;;;7.37;;
68858;SDS011;55864;49.238;8.092;2022-12-20T07:44:16;16.33;;;8.80;;
68858;SDS011;55864;49.238;8.092;2022-12-20T07:46:16;16.67;;;6.93;;
68858;SDS011;55864;49.238;8.092;2022-12-20T07:48:17;11.97;;;6.00;;
68858;SDS011;55864;49.238;8.092;2022-12-20T07:50:17;12.37;;;6.07;;
68858;SDS011;55864;49.238;8.092;2022-12-20T07:52:18;12.13;;;5.90;;
68858;SDS011;55864;49.238;8.092;2022-12-20T07:54:22;12.67;;;5.63;;
68858;SDS011;55864;49.238;8.092;2022-12-20T07:56:27;15.53;;;7.57;;
68858;SDS011;55864;49.238;8.092;2022-12-20T07:58:29;19.13;;;7.63;;
68858;SDS011;55864;49.238;8.092;2022-12-20T08:00:32;11.93;;;5.20;;
68858;SDS011;55864;49.238;8.092;2022-12-20T08:02:35;13.57;;;5.30;;
68858;SDS011;55864;49.238;8.092;2022-12-20T08:04:37;11.03;;;4.80;;
68858;SDS011;55864;49.238;8.092;2022-12-20T08:06:38;10.33;;;4.80;;
68858;SDS011;55864;49.238;8.092;2022-12-20T08:08:42;10.68;;;4.63;;
68858;SDS011;55864;49.238;8.092;2022-12-20T08:10:47;15.17;;;6.20;;
68858;SDS011;55864;49.238;8.092;2022-12-20T08:12:50;16.00;;;5.07;;
68858;SDS011;55864;49.238;8.092;2022-12-20T08:14:51;13.73;;;5.47;;
68858;SDS011;55864;49.238;8.092;2022-12-20T08:16:52;10.87;;;4.20;;
68858;SDS011;55864;49.238;8.092;2022-12-20T08:18:52;9.43;;;4.13;;
68858;SDS011;55864;49.238;8.092;2022-12-20T08:20:53;10.97;;;5.10;;
68858;SDS011;55864;49.238;8.092;2022-12-20T08:22:53;15.77;;;5.40;;
68858;SDS011;55864;49.238;8.092;2022-12-20T08:24:54;14.67;;;5.93;;
68858;SDS011;55864;49.238;8.092;2022-12-20T08:26:54;11.47;;;5.83;;
68858;SDS011;55864;49.238;8.092;2022-12-20T08:28:56;16.20;;;8.67;;
68858;SDS011;55864;49.238;8.092;2022-12-20T08:31:00;11.60;;;5.53;;
68858;SDS011;55864;49.238;8.092;2022-12-20T08:33:01;12.80;;;6.10;;
68858;SDS011;55864;49.238;8.092;2022-12-20T08:35:02;21.73;;;7.93;;
68858;SDS011;55864;49.238;8.092;2022-12-20T08:37:03;16.43;;;6.70;;
68858;SDS011;55864;49.238;8.092;2022-12-20T08:39:03;13.47;;;6.27;;
68858;SDS011;55864;49.238;8.092;2022-12-20T08:41:06;15.00;;;5.83;;
68858;SDS011;55864;49.238;8.092;2022-12-20T08:43:07;12.63;;;6.25;;
68858;SDS011;55864;49.238;8.092;2022-12-20T08:45:09;11.77;;;5.03;;
68858;SDS011;55864;49.238;8.092;2022-12-20T08:47:10;10.57;;;5.37;;
68858;SDS011;55864;49.238;8.092;2022-12-20T08:49:11;12.40;;;4.47;;
68858;SDS011;55864;49.238;8.092;2022-12-20T08:51:11;10.27;;;4.70;;
68858;SDS011;55864;49.238;8.092;2022-12-20T08:53:12;13.63;;;7.07;;
68858;SDS011;55864;49.238;8.092;2022-12-20T08:55:12;13.03;;;5.60;;
68858;SDS011;55864;49.238;8.092;2022-12-20T08:57:13;10.37;;;4.87;;
68858;SDS011;55864;49.238;8.092;2022-12-20T08:59:13;14.07;;;8.10;;
68858;SDS011;55864;49.238;8.092;2022-12-20T09:01:16;14.40;;;6.97;;
68858;SDS011;55864;49.238;8.092;2022-12-20T09:03:19;13.70;;;7.37;;
68858;SDS011;55864;49.238;8.092;2022-12-20T09:05:19;13.70;;;6.53;;
68858;SDS011;55864;49.238;8.092;2022-12-20T09:07:20;13.57;;;6.10;;
68858;SDS011;55864;49.238;8.092;2022-12-20T09:09:20;9.23;;;4.70;;
68858;SDS011;55864;49.238;8.092;2022-12-20T09:11:22;9.20;;;5.10;;
68858;SDS011;55864;49.238;8.092;2022-12-20T09:13:23;10.33;;;4.87;;
68858;SDS011;55864;49.238;8.092;2022-12-20T09:15:24;8.83;;;3.83;;
68858;SDS011;55864;49.238;8.092;2022-12-20T09:17:25;12.00;;;4.20;;
68858;SDS011;55864;49.238;8.092;2022-12-20T09:19:26;9.83;;;4.53;;
68858;SDS011;55864;49.238;8.092;2022-12-20T09:21:26;9.60;;;4.33;;
68858;SDS011;55864;49.238;8.092;2022-12-20T09:23:27;8.03;;;3.97;;
68858;SDS011;55864;49.238;8.092;2022-12-20T09:25:28;8.37;;;3.33;;
68858;SDS011;55864;49.238;8.092;2022-12-20T09:27:28;7.40;;;3.00;;
68858;SDS011;55864;49.238;8.092;2022-12-20T09:29:29;6.60;;;3.03;;
68858;SDS011;55864;49.238;8.092;2022-12-20T09:31:29;6.70;;;3.00;;
68858;SDS011;55864;49.238;8.092;2022-12-20T09:33:32;7.57;;;3.07;;
68858;SDS011;55864;49.238;8.092;2022-12-20T09:35:33;7.07;;;3.47;;
68858;SDS011;55864;49.238;8.092;2022-12-20T09:37:34;7.07;;;2.70;;
68858;SDS011;55864;49.238;8.092;2022-12-20T09:39:34;10.40;;;3.00;;
68858;SDS011;55864;49.238;8.092;2022-12-20T09:41:36;8.77;;;3.20;;
68858;SDS011;55864;49.238;8.092;2022-12-20T09:43:38;6.22;;;3.05;;
68858;SDS011;55864;49.238;8.092;2022-12-20T09:45:38;9.77;;;3.93;;
68858;SDS011;55864;49.238;8.092;2022-12-20T09:47:39;11.10;;;4.33;;
68858;SDS011;55864;49.238;8.092;2022-12-20T09:49:42;14.83;;;5.50;;
68858;SDS011;55864;49.238;8.092;2022-12-20T09:51:53;17.00;;;5.87;;
68858;SDS011;55864;49.238;8.092;2022-12-20T09:54:11;12.90;;;4.50;;
68858;SDS011;55864;49.238;8.092;2022-12-20T09:58:32;10.90;;;4.20;;
68858;SDS011;55864;49.238;8.092;2022-12-20T10:00:45;7.40;;;3.20;;
68858;SDS011;55864;49.238;8.092;2022-12-20T10:02:47;6.28;;;2.72;;
68858;SDS011;55864;49.238;8.092;2022-12-20T10:04:50;6.80;;;2.70;;
68858;SDS011;55864;49.238;8.092;2022-12-20T10:06:55;6.47;;;2.25;;
68858;SDS011;55864;49.238;8.092;2022-12-20T10:09:11;7.03;;;2.30;;
68858;SDS011;55864;49.238;8.092;2022-12-20T10:11:25;6.47;;;2.60;;
68858;SDS011;55864;49.238;8.092;2022-12-20T10:13:40;5.93;;;2.27;;
68858;SDS011;55864;49.238;8.092;2022-12-20T10:15:51;7.20;;;2.57;;
68858;SDS011;55864;49.238;8.092;2022-12-20T10:18:02;6.80;;;2.50;;
68858;SDS011;55864;49.238;8.092;2022-12-20T10:20:22;6.20;;;2.70;;
68858;SDS011;55864;49.238;8.092;2022-12-20T10:22:32;5.97;;;2.50;;
68858;SDS011;55864;49.238;8.092;2022-12-20T10:24:42;6.17;;;2.47;;
68858;SDS011;55864;49.238;8.092;2022-12-20T10:26:48;7.27;;;3.07;;
68858;SDS011;55864;49.238;8.092;2022-12-20T10:28:49;7.27;;;3.37;;
68858;SDS011;55864;49.238;8.092;2022-12-20T10:30:50;8.17;;;3.47;;
68858;SDS011;55864;49.238;8.092;2022-12-20T10:32:51;11.00;;;4.40;;
68858;SDS011;55864;49.238;8.092;2022-12-20T10:34:55;8.77;;;4.00;;
68858;SDS011;55864;49.238;8.092;2022-12-20T10:37:12;10.20;;;4.57;;
68858;SDS011;55864;49.238;8.092;2022-12-20T10:39:14;10.90;;;4.43;;
68858;SDS011;55864;49.238;8.092;2022-12-20T10:41:15;9.63;;;4.63;;
68858;SDS011;55864;49.238;8.092;2022-12-20T10:43:17;10.60;;;5.63;;
68858;SDS011;55864;49.238;8.092;2022-12-20T10:45:24;10.83;;;4.90;;
68858;SDS011;55864;49.238;8.092;2022-12-20T10:47:34;9.20;;;4.67;;
68858;SDS011;55864;49.238;8.092;2022-12-20T10:49:38;9.87;;;4.63;;
68858;SDS011;55864;49.238;8.092;2022-12-20T10:51:38;10.97;;;4.57;;
68858;SDS011;55864;49.238;8.092;2022-12-20T10:53:53;7.37;;;3.50;;
68858;SDS011;55864;49.238;8.092;2022-12-20T10:56:08;7.90;;;3.70;;
68858;SDS011;55864;49.238;8.092;2022-12-20T10:58:21;9.20;;;3.60;;
68858;SDS011;55864;49.238;8.092;2022-12-20T11:00:32;9.67;;;4.27;;
68858;SDS011;55864;49.238;8.092;2022-12-20T11:02:34;14.53;;;4.67;;
68858;SDS011;55864;49.238;8.092;2022-12-20T11:06:41;11.47;;;4.17;;
68858;SDS011;55864;49.238;8.092;2022-12-20T11:08:43;8.60;;;3.27;;
68858;SDS011;55864;49.238;8.092;2022-12-20T11:10:45;9.10;;;3.47;;
68858;SDS011;55864;49.238;8.092;2022-12-20T11:12:51;10.83;;;3.27;;
68858;SDS011;55864;49.238;8.092;2022-12-20T11:15:06;7.87;;;3.00;;
68858;SDS011;55864;49.238;8.092;2022-12-20T11:19:37;7.30;;;2.80;;
68858;SDS011;55864;49.238;8.092;2022-12-20T11:21:51;11.00;;;2.90;;
68858;SDS011;55864;49.238;8.092;2022-12-20T11:24:00;5.97;;;2.77;;
68858;SDS011;55864;49.238;8.092;2022-12-20T11:26:13;8.90;;;3.20;;
68858;SDS011;55864;49.238;8.092;2022-12-20T11:28:39;8.93;;;3.17;;
68858;SDS011;55864;49.238;8.092;2022-12-20T11:30:50;9.77;;;4.00;;
68858;SDS011;55864;49.238;8.092;2022-12-20T11:35:29;11.27;;;4.03;;
68858;SDS011;55864;49.238;8.092;2022-12-20T11:37:42;12.13;;;4.60;;
68858;SDS011;55864;49.238;8.092;2022-12-20T11:40:02;14.07;;;5.47;;
68858;SDS011;55864;49.238;8.092;2022-12-20T11:42:13;10.53;;;4.10;;
68858;SDS011;55864;49.238;8.092;2022-12-20T11:44:24;11.83;;;4.40;;
68858;SDS011;55864;49.238;8.092;2022-12-20T11:46:39;15.85;;;4.68;;
68858;SDS011;55864;49.238;8.092;2022-12-20T11:48:56;16.90;;;6.10;;
68858;SDS011;55864;49.238;8.092;2022-12-20T11:51:06;16.93;;;6.23;;
68858;SDS011;55864;49.238;8.092;2022-12-20T11:53:15;16.60;;;5.40;;
68858;SDS011;55864;49.238;8.092;2022-12-20T11:55:19;14.50;;;5.77;;
68858;SDS011;55864;49.238;8.092;2022-12-20T11:57:27;19.03;;;6.93;;
68858;SDS011;55864;49.238;8.092;2022-12-20T11:59:34;17.70;;;6.50;;
68858;SDS011;55864;49.238;8.092;2022-12-20T12:01:42;17.77;;;6.70;;
68858;SDS011;55864;49.238;8.092;2022-12-20T12:05:51;9.20;;;4.10;;
68858;SDS011;55864;49.238;8.092;2022-12-20T12:07:56;8.90;;;4.10;;
68858;SDS011;55864;49.238;8.092;2022-12-20T12:10:01;10.47;;;4.23;;
68858;SDS011;55864;49.238;8.092;2022-12-20T12:12:07;8.67;;;3.90;;
68858;SDS011;55864;49.238;8.092;2022-12-20T12:14:16;8.73;;;4.20;;
68858;SDS011;55864;49.238;8.092;2022-12-20T12:16:28;10.90;;;4.30;;
68858;SDS011;55864;49.238;8.092;2022-12-20T12:18:35;8.67;;;4.03;;
68858;SDS011;55864;49.238;8.092;2022-12-20T12:20:39;7.67;;;3.70;;
68858;SDS011;55864;49.238;8.092;2022-12-20T12:22:48;9.43;;;4.20;;
68858;SDS011;55864;49.238;8.092;2022-12-20T12:24:55;9.53;;;4.20;;
68858;SDS011;55864;49.238;8.092;2022-12-20T12:26:59;11.57;;;4.33;;